首页
METAR-TAF:

METAR-TAF

机场 :

伦敦Biggin Hill, 英格兰

纬度: 51-19N, 经度: 000-02E, 海拔: 183米

当前天气观测

该预报发布于37分钟前的09:20 UTC
风速9节,风向东北,在之间变化
温度 18°C
湿度 59%
气压 1023 hPa
能见度10公里或以上
1500米以下无云,无积雨云

METAR: EGKB 010920Z 05009KT 010V080 CAVOK 18/10 Q1023

时间: 10:57 (09:57 UTC)

预报

该预报发布于1小时和56分钟前的08:01 UTC
预报有效从01日的 09点(UTC)到 01日的 18点(UTC)
风速8节,风向东转东北
能见度10公里或以上
1500米以下无云,无积雨云

TAF: EGKB 010801Z 0109/0118 06008KT CAVOK

超过4000个机场的气象观测和天气预报(METAR&TAF报告)。

可查询的气象台以黄色和红色小点在地图上表示。

将鼠标移到小点上方,可查看气象台名称。

然后点击查看天气观测和预报。

如需切换地图:点击带黑十字的绿色按钮放大地图;点击带横线的绿色按钮缩小地图;或者点击绿色箭头查看邻近地区的地图。


METAR-TAF: